Terminal Aerodrome Forecast
Issued by NWS

Home | Current Version | Previous Version | Text Only | Print | Product List | Glossary On
Versions: 1 2 3 4 5 6 7 8 9 10 11 12 13 14 15
000
FTUS46 KEKA 231145
TAFUKI
TAF
KUKI 231145Z 2312/2412 15003KT 6SM -RA BKN025 BKN040 OVC080
     FM232200 13004KT 5SM -RA BR OVC020
     FM240200 00000KT P6SM SCT020 BKN035 OVC100=

USA.gov is the U.S. government's official web portal to all federal, state and local government web resources and services.